Terminal Aerodrome Forecast
Issued by NWS

Home | Current Version | Previous Version | Graphics & Text | Print | Product List | Glossary On
Versions: 1 2 3 4 5 6 7 8 9 10 11 12 13 14
685
FTUS43 KMPX 231722
TAFRWF
TAF
KRWF 231722Z 2318/2418 35008KT P6SM VCSH SCT020 BKN040 OVC080
      TEMPO 2318/2320 BKN020
     FM240200 36006KT P6SM BKN080
     FM241000 35005KT P6SM BKN030
     FM241100 36005KT P6SM SCT025=

USA.gov is the U.S. government's official web portal to all federal, state and local government web resources and services.